sensor_id;sensor_type;location;lat;lon;timestamp;pressure;altitude;pressure_sealevel;temperature;humidity
62948;BME280;51940;52.126;-0.994;2023-01-30T00:00:28;101015.84;;;4.62;100.00
62948;BME280;51940;52.126;-0.994;2023-01-30T00:02:54;101014.45;;;4.63;100.00
62948;BME280;51940;52.126;-0.994;2023-01-30T00:05:19;101019.40;;;4.64;100.00
62948;BME280;51940;52.126;-0.994;2023-01-30T00:07:48;101022.41;;;4.67;100.00
62948;BME280;51940;52.126;-0.994;2023-01-30T00:10:14;101024.55;;;4.68;100.00
62948;BME280;51940;52.126;-0.994;2023-01-30T00:12:39;101021.23;;;4.71;100.00
62948;BME280;51940;52.126;-0.994;2023-01-30T00:15:05;101021.95;;;4.73;100.00
62948;BME280;51940;52.126;-0.994;2023-01-30T00:17:31;101019.84;;;4.75;100.00
62948;BME280;51940;52.126;-0.994;2023-01-30T00:19:56;101024.80;;;4.77;100.00
62948;BME280;51940;52.126;-0.994;2023-01-30T00:22:22;101017.23;;;4.78;100.00
62948;BME280;51940;52.126;-0.994;2023-01-30T00:24:47;101009.14;;;4.81;100.00
62948;BME280;51940;52.126;-0.994;2023-01-30T00:27:12;101015.88;;;4.86;100.00
62948;BME280;51940;52.126;-0.994;2023-01-30T00:29:38;101026.17;;;4.89;100.00
62948;BME280;51940;52.126;-0.994;2023-01-30T00:32:03;101023.19;;;4.92;100.00
62948;BME280;51940;52.126;-0.994;2023-01-30T00:34:29;101025.17;;;4.96;100.00
62948;BME280;51940;52.126;-0.994;2023-01-30T00:36:54;101023.61;;;4.99;100.00
62948;BME280;51940;52.126;-0.994;2023-01-30T00:39:20;101022.21;;;5.02;100.00
62948;BME280;51940;52.126;-0.994;2023-01-30T00:41:45;101018.90;;;5.06;100.00
62948;BME280;51940;52.126;-0.994;2023-01-30T00:44:29;101010.78;;;5.09;100.00
62948;BME280;51940;52.126;-0.994;2023-01-30T00:47:13;101006.22;;;5.13;100.00
62948;BME280;51940;52.126;-0.994;2023-01-30T00:49:39;100997.41;;;5.17;100.00
62948;BME280;51940;52.126;-0.994;2023-01-30T00:52:06;101000.24;;;5.20;100.00
62948;BME280;51940;52.126;-0.994;2023-01-30T00:54:32;100994.09;;;5.22;100.00
62948;BME280;51940;52.126;-0.994;2023-01-30T00:56:58;100994.11;;;5.25;100.00
62948;BME280;51940;52.126;-0.994;2023-01-30T00:59:24;100993.59;;;5.27;100.00
62948;BME280;51940;52.126;-0.994;2023-01-30T01:01:49;100998.93;;;5.30;100.00
62948;BME280;51940;52.126;-0.994;2023-01-30T01:04:15;100988.70;;;5.34;100.00
62948;BME280;51940;52.126;-0.994;2023-01-30T01:06:40;100984.80;;;5.37;100.00
62948;BME280;51940;52.126;-0.994;2023-01-30T01:09:06;100983.08;;;5.39;100.00
62948;BME280;51940;52.126;-0.994;2023-01-30T01:11:32;100977.42;;;5.41;100.00
62948;BME280;51940;52.126;-0.994;2023-01-30T01:14:01;100978.48;;;5.43;100.00
62948;BME280;51940;52.126;-0.994;2023-01-30T01:16:27;100975.67;;;5.45;100.00
62948;BME280;51940;52.126;-0.994;2023-01-30T01:18:53;100983.65;;;5.48;100.00
62948;BME280;51940;52.126;-0.994;2023-01-30T01:21:19;100985.96;;;5.48;100.00
62948;BME280;51940;52.126;-0.994;2023-01-30T01:23:53;100983.48;;;5.50;100.00
62948;BME280;51940;52.126;-0.994;2023-01-30T01:26:19;100991.80;;;5.51;100.00
62948;BME280;51940;52.126;-0.994;2023-01-30T01:28:44;100984.02;;;5.52;100.00
62948;BME280;51940;52.126;-0.994;2023-01-30T01:31:13;100982.08;;;5.54;100.00
62948;BME280;51940;52.126;-0.994;2023-01-30T01:33:40;100993.77;;;5.55;100.00
62948;BME280;51940;52.126;-0.994;2023-01-30T01:36:06;100991.14;;;5.57;100.00
62948;BME280;51940;52.126;-0.994;2023-01-30T01:38:32;100992.75;;;5.59;100.00
62948;BME280;51940;52.126;-0.994;2023-01-30T01:40:58;100988.33;;;5.61;100.00
62948;BME280;51940;52.126;-0.994;2023-01-30T01:43:55;100998.79;;;5.64;100.00
62948;BME280;51940;52.126;-0.994;2023-01-30T01:46:25;100994.39;;;5.69;100.00
62948;BME280;51940;52.126;-0.994;2023-01-30T01:48:55;100996.72;;;5.74;100.00
62948;BME280;51940;52.126;-0.994;2023-01-30T01:54:01;100989.52;;;5.88;100.00
62948;BME280;51940;52.126;-0.994;2023-01-30T01:56:28;100985.87;;;5.95;100.00
62948;BME280;51940;52.126;-0.994;2023-01-30T01:59:03;100985.38;;;6.02;100.00
62948;BME280;51940;52.126;-0.994;2023-01-30T02:01:33;100976.73;;;6.09;100.00
62948;BME280;51940;52.126;-0.994;2023-01-30T02:04:03;100973.21;;;6.16;100.00
62948;BME280;51940;52.126;-0.994;2023-01-30T02:06:30;100987.22;;;6.23;100.00
62948;BME280;51940;52.126;-0.994;2023-01-30T02:09:03;100991.84;;;6.30;100.00
62948;BME280;51940;52.126;-0.994;2023-01-30T02:11:36;100998.41;;;6.36;100.00
62948;BME280;51940;52.126;-0.994;2023-01-30T02:14:05;101012.42;;;6.40;100.00
62948;BME280;51940;52.126;-0.994;2023-01-30T02:16:31;101022.36;;;6.44;100.00
62948;BME280;51940;52.126;-0.994;2023-01-30T02:18:56;101024.66;;;6.46;100.00
62948;BME280;51940;52.126;-0.994;2023-01-30T02:29:53;101034.05;;;6.48;100.00
62948;BME280;51940;52.126;-0.994;2023-01-30T02:40:53;101045.58;;;6.43;100.00
62948;BME280;51940;52.126;-0.994;2023-01-30T02:46:16;101053.69;;;6.40;100.00
62948;BME280;51940;52.126;-0.994;2023-01-30T02:51:22;101059.02;;;6.39;100.00
62948;BME280;51940;52.126;-0.994;2023-01-30T02:53:49;101066.81;;;6.39;100.00
62948;BME280;51940;52.126;-0.994;2023-01-30T02:56:15;101069.45;;;6.38;100.00
62948;BME280;51940;52.126;-0.994;2023-01-30T02:58:44;101075.30;;;6.40;100.00
62948;BME280;51940;52.126;-0.994;2023-01-30T03:07:12;101089.30;;;6.36;100.00
62948;BME280;51940;52.126;-0.994;2023-01-30T03:09:57;101085.05;;;6.35;100.00
62948;BME280;51940;52.126;-0.994;2023-01-30T03:17:53;101086.27;;;6.32;100.00
62948;BME280;51940;52.126;-0.994;2023-01-30T03:20:19;101084.66;;;6.31;100.00
62948;BME280;51940;52.126;-0.994;2023-01-30T03:22:45;101083.42;;;6.30;100.00
62948;BME280;51940;52.126;-0.994;2023-01-30T03:25:16;101082.02;;;6.30;100.00
62948;BME280;51940;52.126;-0.994;2023-01-30T03:27:44;101085.02;;;6.30;100.00
62948;BME280;51940;52.126;-0.994;2023-01-30T03:30:10;101083.60;;;6.30;100.00
62948;BME280;51940;52.126;-0.994;2023-01-30T03:32:36;101086.96;;;6.30;100.00
62948;BME280;51940;52.126;-0.994;2023-01-30T03:35:01;101085.55;;;6.26;100.00
62948;BME280;51940;52.126;-0.994;2023-01-30T03:37:26;101089.26;;;6.24;100.00
62948;BME280;51940;52.126;-0.994;2023-01-30T03:39:52;101092.25;;;6.21;100.00
62948;BME280;51940;52.126;-0.994;2023-01-30T03:42:17;101091.52;;;6.19;100.00
62948;BME280;51940;52.126;-0.994;2023-01-30T03:44:43;101098.96;;;6.17;100.00
62948;BME280;51940;52.126;-0.994;2023-01-30T03:47:08;101101.61;;;6.15;100.00
62948;BME280;51940;52.126;-0.994;2023-01-30T03:49:34;101107.08;;;6.13;100.00
62948;BME280;51940;52.126;-0.994;2023-01-30T03:51:59;101099.63;;;6.10;100.00
62948;BME280;51940;52.126;-0.994;2023-01-30T03:54:24;101097.84;;;6.07;100.00
62948;BME280;51940;52.126;-0.994;2023-01-30T03:56:50;101101.17;;;6.03;100.00
62948;BME280;51940;52.126;-0.994;2023-01-30T03:59:15;101104.86;;;5.96;100.00
62948;BME280;51940;52.126;-0.994;2023-01-30T04:01:40;101106.61;;;5.92;100.00
62948;BME280;51940;52.126;-0.994;2023-01-30T04:04:06;101106.71;;;5.88;100.00
62948;BME280;51940;52.126;-0.994;2023-01-30T04:06:31;101107.05;;;5.83;100.00
62948;BME280;51940;52.126;-0.994;2023-01-30T04:08:56;101108.26;;;5.81;100.00
62948;BME280;51940;52.126;-0.994;2023-01-30T04:11:22;101109.83;;;5.78;100.00
62948;BME280;51940;52.126;-0.994;2023-01-30T04:13:47;101113.36;;;5.76;100.00
62948;BME280;51940;52.126;-0.994;2023-01-30T04:16:24;101123.80;;;5.74;100.00
62948;BME280;51940;52.126;-0.994;2023-01-30T04:18:51;101134.59;;;5.73;100.00
62948;BME280;51940;52.126;-0.994;2023-01-30T04:21:17;101139.52;;;5.71;100.00
62948;BME280;51940;52.126;-0.994;2023-01-30T04:23:43;101138.26;;;5.67;100.00
62948;BME280;51940;52.126;-0.994;2023-01-30T04:26:09;101149.74;;;5.64;100.00
62948;BME280;51940;52.126;-0.994;2023-01-30T04:28:35;101153.06;;;5.61;100.00
62948;BME280;51940;52.126;-0.994;2023-01-30T04:31:01;101160.66;;;5.58;100.00
62948;BME280;51940;52.126;-0.994;2023-01-30T04:33:26;101166.27;;;5.53;100.00
62948;BME280;51940;52.126;-0.994;2023-01-30T04:35:58;101168.52;;;5.46;100.00
62948;BME280;51940;52.126;-0.994;2023-01-30T04:38:25;101172.34;;;5.39;100.00
62948;BME280;51940;52.126;-0.994;2023-01-30T04:40:53;101170.84;;;5.30;100.00
62948;BME280;51940;52.126;-0.994;2023-01-30T04:43:19;101167.77;;;5.23;100.00
62948;BME280;51940;52.126;-0.994;2023-01-30T04:45:47;101170.68;;;5.15;100.00
62948;BME280;51940;52.126;-0.994;2023-01-30T04:48:13;101168.83;;;5.07;100.00
62948;BME280;51940;52.126;-0.994;2023-01-30T04:50:40;101178.27;;;4.98;100.00
62948;BME280;51940;52.126;-0.994;2023-01-30T04:53:05;101178.55;;;4.90;100.00
62948;BME280;51940;52.126;-0.994;2023-01-30T04:55:31;101179.87;;;4.83;100.00
62948;BME280;51940;52.126;-0.994;2023-01-30T04:57:56;101183.48;;;4.75;100.00
62948;BME280;51940;52.126;-0.994;2023-01-30T05:00:21;101189.10;;;4.71;100.00
62948;BME280;51940;52.126;-0.994;2023-01-30T05:02:47;101191.14;;;4.66;100.00
62948;BME280;51940;52.126;-0.994;2023-01-30T05:05:12;101197.07;;;4.60;100.00
62948;BME280;51940;52.126;-0.994;2023-01-30T05:07:38;101200.14;;;4.51;100.00
62948;BME280;51940;52.126;-0.994;2023-01-30T05:10:04;101197.56;;;4.44;100.00
62948;BME280;51940;52.126;-0.994;2023-01-30T05:12:29;101192.56;;;4.40;100.00
62948;BME280;51940;52.126;-0.994;2023-01-30T05:14:55;101186.70;;;4.37;100.00
62948;BME280;51940;52.126;-0.994;2023-01-30T05:17:21;101194.76;;;4.33;100.00
62948;BME280;51940;52.126;-0.994;2023-01-30T05:19:46;101183.76;;;4.28;100.00
62948;BME280;51940;52.126;-0.994;2023-01-30T05:22:11;101183.32;;;4.23;100.00
62948;BME280;51940;52.126;-0.994;2023-01-30T05:24:37;101188.20;;;4.19;100.00
62948;BME280;51940;52.126;-0.994;2023-01-30T05:27:03;101190.44;;;4.15;100.00
62948;BME280;51940;52.126;-0.994;2023-01-30T05:29:28;101189.54;;;4.13;100.00
62948;BME280;51940;52.126;-0.994;2023-01-30T05:31:53;101198.30;;;4.09;100.00
62948;BME280;51940;52.126;-0.994;2023-01-30T05:34:19;101196.48;;;4.06;100.00
62948;BME280;51940;52.126;-0.994;2023-01-30T05:36:44;101192.17;;;4.01;100.00
62948;BME280;51940;52.126;-0.994;2023-01-30T05:39:10;101186.48;;;3.99;100.00
62948;BME280;51940;52.126;-0.994;2023-01-30T05:41:35;101181.48;;;3.94;100.00
62948;BME280;51940;52.126;-0.994;2023-01-30T05:44:00;101182.80;;;3.89;100.00
62948;BME280;51940;52.126;-0.994;2023-01-30T05:46:26;101184.65;;;3.83;100.00
62948;BME280;51940;52.126;-0.994;2023-01-30T05:48:51;101187.95;;;3.80;100.00
62948;BME280;51940;52.126;-0.994;2023-01-30T05:51:21;101195.30;;;3.76;100.00
62948;BME280;51940;52.126;-0.994;2023-01-30T05:53:47;101201.23;;;3.72;100.00
62948;BME280;51940;52.126;-0.994;2023-01-30T05:56:13;101199.77;;;3.68;100.00
62948;BME280;51940;52.126;-0.994;2023-01-30T05:58:39;101197.74;;;3.64;100.00
62948;BME280;51940;52.126;-0.994;2023-01-30T06:01:07;101197.34;;;3.60;100.00
62948;BME280;51940;52.126;-0.994;2023-01-30T06:03:34;101198.35;;;3.59;100.00
62948;BME280;51940;52.126;-0.994;2023-01-30T06:06:01;101195.84;;;3.57;100.00
62948;BME280;51940;52.126;-0.994;2023-01-30T06:08:27;101198.65;;;3.55;100.00
62948;BME280;51940;52.126;-0.994;2023-01-30T06:10:52;101202.49;;;3.53;100.00
62948;BME280;51940;52.126;-0.994;2023-01-30T06:13:18;101207.05;;;3.51;100.00
62948;BME280;51940;52.126;-0.994;2023-01-30T06:15:43;101211.94;;;3.49;100.00
62948;BME280;51940;52.126;-0.994;2023-01-30T06:18:09;101218.49;;;3.50;100.00
62948;BME280;51940;52.126;-0.994;2023-01-30T06:20:35;101227.90;;;3.53;100.00
62948;BME280;51940;52.126;-0.994;2023-01-30T06:23:00;101231.13;;;3.57;100.00
62948;BME280;51940;52.126;-0.994;2023-01-30T06:25:26;101229.80;;;3.61;100.00
62948;BME280;51940;52.126;-0.994;2023-01-30T06:27:51;101226.86;;;3.65;100.00
62948;BME280;51940;52.126;-0.994;2023-01-30T06:30:17;101223.96;;;3.71;100.00
62948;BME280;51940;52.126;-0.994;2023-01-30T06:32:42;101221.57;;;3.75;100.00
62948;BME280;51940;52.126;-0.994;2023-01-30T06:35:08;101225.89;;;3.80;100.00
62948;BME280;51940;52.126;-0.994;2023-01-30T06:37:34;101232.69;;;3.85;100.00
62948;BME280;51940;52.126;-0.994;2023-01-30T06:39:59;101244.24;;;3.91;100.00
62948;BME280;51940;52.126;-0.994;2023-01-30T06:42:25;101246.81;;;3.96;100.00
62948;BME280;51940;52.126;-0.994;2023-01-30T06:44:50;101249.52;;;4.01;100.00
62948;BME280;51940;52.126;-0.994;2023-01-30T06:47:15;101250.30;;;4.05;100.00
62948;BME280;51940;52.126;-0.994;2023-01-30T06:49:41;101265.95;;;4.11;100.00
62948;BME280;51940;52.126;-0.994;2023-01-30T06:52:06;101268.48;;;4.16;100.00
62948;BME280;51940;52.126;-0.994;2023-01-30T06:54:31;101274.40;;;4.20;100.00
62948;BME280;51940;52.126;-0.994;2023-01-30T06:56:57;101281.48;;;4.23;100.00
62948;BME280;51940;52.126;-0.994;2023-01-30T06:59:22;101288.56;;;4.24;100.00
62948;BME280;51940;52.126;-0.994;2023-01-30T07:01:47;101277.45;;;4.24;100.00
62948;BME280;51940;52.126;-0.994;2023-01-30T07:04:13;101271.77;;;4.22;100.00
62948;BME280;51940;52.126;-0.994;2023-01-30T07:06:38;101271.02;;;4.19;100.00
62948;BME280;51940;52.126;-0.994;2023-01-30T07:09:03;101267.77;;;4.14;100.00
62948;BME280;51940;52.126;-0.994;2023-01-30T07:11:29;101266.06;;;4.08;100.00
62948;BME280;51940;52.126;-0.994;2023-01-30T07:13:55;101273.60;;;4.04;100.00
62948;BME280;51940;52.126;-0.994;2023-01-30T07:16:21;101279.17;;;4.01;100.00
62948;BME280;51940;52.126;-0.994;2023-01-30T07:18:54;101287.11;;;4.00;100.00
62948;BME280;51940;52.126;-0.994;2023-01-30T07:21:25;101292.27;;;4.02;100.00
62948;BME280;51940;52.126;-0.994;2023-01-30T07:23:52;101297.94;;;4.03;100.00
62948;BME280;51940;52.126;-0.994;2023-01-30T07:26:18;101301.67;;;4.05;100.00
62948;BME280;51940;52.126;-0.994;2023-01-30T07:28:43;101303.63;;;4.06;100.00
62948;BME280;51940;52.126;-0.994;2023-01-30T07:31:09;101299.95;;;4.08;100.00
62948;BME280;51940;52.126;-0.994;2023-01-30T07:33:34;101299.60;;;4.09;100.00
62948;BME280;51940;52.126;-0.994;2023-01-30T07:35:59;101296.10;;;4.10;100.00
62948;BME280;51940;52.126;-0.994;2023-01-30T07:38:25;101291.20;;;4.11;100.00
62948;BME280;51940;52.126;-0.994;2023-01-30T07:40:50;101292.80;;;4.12;100.00
62948;BME280;51940;52.126;-0.994;2023-01-30T07:43:16;101300.73;;;4.12;100.00
62948;BME280;51940;52.126;-0.994;2023-01-30T07:45:45;101305.34;;;4.12;100.00
62948;BME280;51940;52.126;-0.994;2023-01-30T07:48:13;101310.63;;;4.12;100.00
62948;BME280;51940;52.126;-0.994;2023-01-30T07:50:39;101310.09;;;4.11;100.00
62948;BME280;51940;52.126;-0.994;2023-01-30T07:53:06;101301.25;;;4.11;100.00
62948;BME280;51940;52.126;-0.994;2023-01-30T07:55:32;101303.50;;;4.09;100.00
62948;BME280;51940;52.126;-0.994;2023-01-30T07:57:58;101308.30;;;4.10;100.00
62948;BME280;51940;52.126;-0.994;2023-01-30T08:00:24;101310.22;;;4.10;100.00
62948;BME280;51940;52.126;-0.994;2023-01-30T08:02:50;101322.41;;;4.10;100.00
62948;BME280;51940;52.126;-0.994;2023-01-30T08:05:15;101335.69;;;4.11;100.00
62948;BME280;51940;52.126;-0.994;2023-01-30T08:07:41;101345.42;;;4.13;100.00
62948;BME280;51940;52.126;-0.994;2023-01-30T08:10:06;101352.34;;;4.16;100.00
62948;BME280;51940;52.126;-0.994;2023-01-30T08:12:32;101364.17;;;4.17;100.00
62948;BME280;51940;52.126;-0.994;2023-01-30T08:14:58;101375.84;;;4.17;100.00
62948;BME280;51940;52.126;-0.994;2023-01-30T08:17:23;101377.24;;;4.16;100.00
62948;BME280;51940;52.126;-0.994;2023-01-30T08:19:49;101374.95;;;4.16;100.00
62948;BME280;51940;52.126;-0.994;2023-01-30T08:22:14;101373.17;;;4.16;100.00
62948;BME280;51940;52.126;-0.994;2023-01-30T08:24:39;101371.41;;;4.15;100.00
62948;BME280;51940;52.126;-0.994;2023-01-30T08:27:05;101367.70;;;4.16;100.00
62948;BME280;51940;52.126;-0.994;2023-01-30T08:29:30;101368.75;;;4.15;100.00
62948;BME280;51940;52.126;-0.994;2023-01-30T08:31:59;101367.16;;;4.16;100.00
62948;BME280;51940;52.126;-0.994;2023-01-30T08:34:25;101361.00;;;4.16;100.00
62948;BME280;51940;52.126;-0.994;2023-01-30T08:36:51;101357.11;;;4.17;100.00
62948;BME280;51940;52.126;-0.994;2023-01-30T08:39:16;101363.14;;;4.18;100.00
62948;BME280;51940;52.126;-0.994;2023-01-30T08:41:42;101370.98;;;4.20;100.00
62948;BME280;51940;52.126;-0.994;2023-01-30T08:44:11;101379.30;;;4.22;100.00
62948;BME280;51940;52.126;-0.994;2023-01-30T08:46:37;101377.92;;;4.25;100.00
62948;BME280;51940;52.126;-0.994;2023-01-30T08:49:04;101376.75;;;4.28;100.00
62948;BME280;51940;52.126;-0.994;2023-01-30T08:51:29;101382.45;;;4.31;100.00
62948;BME280;51940;52.126;-0.994;2023-01-30T08:53:55;101392.56;;;4.34;100.00
62948;BME280;51940;52.126;-0.994;2023-01-30T08:56:21;101404.48;;;4.37;100.00
62948;BME280;51940;52.126;-0.994;2023-01-30T08:58:47;101419.17;;;4.41;100.00
62948;BME280;51940;52.126;-0.994;2023-01-30T09:01:14;101418.53;;;4.44;100.00
62948;BME280;51940;52.126;-0.994;2023-01-30T09:03:40;101418.75;;;4.46;100.00
62948;BME280;51940;52.126;-0.994;2023-01-30T09:06:06;101421.80;;;4.49;100.00
62948;BME280;51940;52.126;-0.994;2023-01-30T09:08:31;101416.51;;;4.50;100.00
62948;BME280;51940;52.126;-0.994;2023-01-30T09:10:58;101409.27;;;4.51;100.00
62948;BME280;51940;52.126;-0.994;2023-01-30T09:13:24;101403.52;;;4.54;100.00
62948;BME280;51940;52.126;-0.994;2023-01-30T09:15:49;101410.11;;;4.58;100.00
62948;BME280;51940;52.126;-0.994;2023-01-30T09:18:15;101417.23;;;4.61;100.00
62948;BME280;51940;52.126;-0.994;2023-01-30T09:20:40;101425.95;;;4.66;100.00
62948;BME280;51940;52.126;-0.994;2023-01-30T09:23:07;101429.24;;;4.72;100.00
62948;BME280;51940;52.126;-0.994;2023-01-30T09:25:32;101424.39;;;4.77;100.00
62948;BME280;51940;52.126;-0.994;2023-01-30T09:27:57;101413.52;;;4.83;100.00
62948;BME280;51940;52.126;-0.994;2023-01-30T09:30:24;101401.24;;;4.89;100.00
62948;BME280;51940;52.126;-0.994;2023-01-30T09:32:49;101388.06;;;4.95;100.00
62948;BME280;51940;52.126;-0.994;2023-01-30T09:35:15;101386.74;;;5.01;100.00
62948;BME280;51940;52.126;-0.994;2023-01-30T09:37:52;101391.61;;;5.07;100.00
62948;BME280;51940;52.126;-0.994;2023-01-30T09:40:28;101400.34;;;5.12;100.00
62948;BME280;51940;52.126;-0.994;2023-01-30T09:48:38;101407.27;;;5.27;100.00
62948;BME280;51940;52.126;-0.994;2023-01-30T09:54:01;101403.20;;;5.40;100.00
62948;BME280;51940;52.126;-0.994;2023-01-30T09:56:29;101409.25;;;5.44;100.00
62948;BME280;51940;52.126;-0.994;2023-01-30T09:59:01;101421.66;;;5.45;100.00
62948;BME280;51940;52.126;-0.994;2023-01-30T10:02:14;101437.82;;;5.48;100.00
62948;BME280;51940;52.126;-0.994;2023-01-30T10:04:46;101441.73;;;5.49;100.00
62948;BME280;51940;52.126;-0.994;2023-01-30T10:12:49;101448.67;;;5.55;100.00
62948;BME280;51940;52.126;-0.994;2023-01-30T10:15:38;101443.25;;;5.57;100.00
62948;BME280;51940;52.126;-0.994;2023-01-30T10:26:30;101453.39;;;5.75;100.00
62948;BME280;51940;52.126;-0.994;2023-01-30T10:29:02;101461.95;;;5.81;100.00
62948;BME280;51940;52.126;-0.994;2023-01-30T10:31:36;101456.17;;;5.85;100.00
62948;BME280;51940;52.126;-0.994;2023-01-30T10:34:19;101461.91;;;5.90;100.00
62948;BME280;51940;52.126;-0.994;2023-01-30T10:36:54;101456.17;;;5.99;100.00
62948;BME280;51940;52.126;-0.994;2023-01-30T10:42:12;101463.23;;;6.12;100.00
62948;BME280;51940;52.126;-0.994;2023-01-30T10:44:40;101474.28;;;6.17;100.00
62948;BME280;51940;52.126;-0.994;2023-01-30T10:47:32;101478.42;;;6.24;100.00
62948;BME280;51940;52.126;-0.994;2023-01-30T10:50:12;101476.40;;;6.33;100.00
62948;BME280;51940;52.126;-0.994;2023-01-30T10:53:16;101476.29;;;6.39;100.00
62948;BME280;51940;52.126;-0.994;2023-01-30T10:55:47;101477.79;;;6.46;100.00
62948;BME280;51940;52.126;-0.994;2023-01-30T10:59:05;101478.39;;;6.54;100.00
62948;BME280;51940;52.126;-0.994;2023-01-30T11:01:24;101477.92;;;6.60;100.00
62948;BME280;51940;52.126;-0.994;2023-01-30T11:03:56;101477.27;;;6.66;100.00
62948;BME280;51940;52.126;-0.994;2023-01-30T11:06:25;101472.89;;;6.73;100.00
62948;BME280;51940;52.126;-0.994;2023-01-30T11:08:54;101468.52;;;6.80;100.00
62948;BME280;51940;52.126;-0.994;2023-01-30T11:11:30;101471.92;;;6.85;100.00
62948;BME280;51940;52.126;-0.994;2023-01-30T11:14:02;101474.64;;;6.91;100.00
62948;BME280;51940;52.126;-0.994;2023-01-30T11:16:29;101471.30;;;6.95;100.00
62948;BME280;51940;52.126;-0.994;2023-01-30T11:18:56;101468.67;;;6.99;100.00
62948;BME280;51940;52.126;-0.994;2023-01-30T11:21:32;101469.25;;;7.05;100.00
62948;BME280;51940;52.126;-0.994;2023-01-30T11:24:04;101472.16;;;7.13;100.00
62948;BME280;51940;52.126;-0.994;2023-01-30T11:26:35;101467.06;;;7.21;100.00
62948;BME280;51940;52.126;-0.994;2023-01-30T11:31:52;101488.80;;;7.35;100.00
62948;BME280;51940;52.126;-0.994;2023-01-30T11:34:20;101487.96;;;7.41;100.00
62948;BME280;51940;52.126;-0.994;2023-01-30T11:36:47;101496.35;;;7.49;100.00
62948;BME280;51940;52.126;-0.994;2023-01-30T11:41:59;101494.69;;;7.67;100.00
62948;BME280;51940;52.126;-0.994;2023-01-30T11:44:35;101492.45;;;7.79;100.00
62948;BME280;51940;52.126;-0.994;2023-01-30T11:47:06;101503.64;;;7.81;100.00
62948;BME280;51940;52.126;-0.994;2023-01-30T11:49:39;101509.69;;;7.83;100.00
62948;BME280;51940;52.126;-0.994;2023-01-30T11:52:06;101518.39;;;7.83;100.00
62948;BME280;51940;52.126;-0.994;2023-01-30T11:54:34;101521.26;;;7.86;100.00
62948;BME280;51940;52.126;-0.994;2023-01-30T11:57:04;101512.19;;;7.85;100.00
62948;BME280;51940;52.126;-0.994;2023-01-30T11:59:43;101502.05;;;7.85;100.00
62948;BME280;51940;52.126;-0.994;2023-01-30T12:02:30;101491.22;;;7.84;100.00
62948;BME280;51940;52.126;-0.994;2023-01-30T12:05:01;101488.36;;;7.85;100.00
62948;BME280;51940;52.126;-0.994;2023-01-30T12:07:31;101489.46;;;7.87;100.00
62948;BME280;51940;52.126;-0.994;2023-01-30T12:09:58;101493.73;;;7.92;100.00
62948;BME280;51940;52.126;-0.994;2023-01-30T12:15:02;101488.23;;;7.93;100.00
62948;BME280;51940;52.126;-0.994;2023-01-30T12:17:40;101495.34;;;7.90;100.00
62948;BME280;51940;52.126;-0.994;2023-01-30T12:20:13;101502.25;;;7.86;100.00
62948;BME280;51940;52.126;-0.994;2023-01-30T12:22:45;101497.24;;;7.80;100.00
62948;BME280;51940;52.126;-0.994;2023-01-30T12:25:18;101489.03;;;7.72;100.00
62948;BME280;51940;52.126;-0.994;2023-01-30T12:27:51;101487.91;;;7.62;100.00
62948;BME280;51940;52.126;-0.994;2023-01-30T12:33:05;101478.24;;;7.48;100.00
62948;BME280;51940;52.126;-0.994;2023-01-30T12:38:28;101475.05;;;7.46;100.00
62948;BME280;51940;52.126;-0.994;2023-01-30T12:41:17;101475.39;;;7.44;100.00
62948;BME280;51940;52.126;-0.994;2023-01-30T12:49:32;101482.65;;;7.43;100.00
62948;BME280;51940;52.126;-0.994;2023-01-30T13:04:59;101498.48;;;7.25;100.00
62948;BME280;51940;52.126;-0.994;2023-01-30T13:13:05;101496.11;;;7.14;100.00
62948;BME280;51940;52.126;-0.994;2023-01-30T13:18:38;101484.74;;;7.11;100.00
62948;BME280;51940;52.126;-0.994;2023-01-30T13:21:14;101473.21;;;7.11;100.00
62948;BME280;51940;52.126;-0.994;2023-01-30T13:24:00;101468.61;;;7.14;100.00
62948;BME280;51940;52.126;-0.994;2023-01-30T13:26:32;101464.54;;;7.15;100.00
62948;BME280;51940;52.126;-0.994;2023-01-30T13:29:06;101472.88;;;7.15;100.00
62948;BME280;51940;52.126;-0.994;2023-01-30T13:31:38;101477.13;;;7.15;100.00
62948;BME280;51940;52.126;-0.994;2023-01-30T13:34:34;101473.45;;;7.18;100.00
62948;BME280;51940;52.126;-0.994;2023-01-30T13:37:10;101476.98;;;7.18;100.00
62948;BME280;51940;52.126;-0.994;2023-01-30T13:39:49;101475.54;;;7.16;100.00
62948;BME280;51940;52.126;-0.994;2023-01-30T13:42:25;101471.10;;;7.16;100.00
62948;BME280;51940;52.126;-0.994;2023-01-30T13:44:52;101467.58;;;7.18;100.00
62948;BME280;51940;52.126;-0.994;2023-01-30T13:47:47;101465.28;;;7.19;100.00
62948;BME280;51940;52.126;-0.994;2023-01-30T13:50:35;101471.11;;;7.16;100.00
62948;BME280;51940;52.126;-0.994;2023-01-30T13:53:21;101467.02;;;7.17;100.00
62948;BME280;51940;52.126;-0.994;2023-01-30T13:55:55;101462.80;;;7.18;100.00
62948;BME280;51940;52.126;-0.994;2023-01-30T13:58:37;101466.54;;;7.20;100.00
62948;BME280;51940;52.126;-0.994;2023-01-30T14:01:12;101464.23;;;7.21;100.00
62948;BME280;51940;52.126;-0.994;2023-01-30T14:03:41;101467.61;;;7.23;100.00
62948;BME280;51940;52.126;-0.994;2023-01-30T14:08:48;101469.73;;;7.21;100.00
62948;BME280;51940;52.126;-0.994;2023-01-30T14:11:33;101468.48;;;7.20;100.00
62948;BME280;51940;52.126;-0.994;2023-01-30T14:14:55;101475.59;;;7.23;100.00
62948;BME280;51940;52.126;-0.994;2023-01-30T14:16:53;101481.81;;;7.25;100.00
62948;BME280;51940;52.126;-0.994;2023-01-30T14:22:02;101485.05;;;7.29;100.00
62948;BME280;51940;52.126;-0.994;2023-01-30T14:24:29;101491.05;;;7.25;100.00
62948;BME280;51940;52.126;-0.994;2023-01-30T14:32:49;101498.77;;;7.11;100.00
62948;BME280;51940;52.126;-0.994;2023-01-30T14:40:00;101487.73;;;7.10;100.00
62948;BME280;51940;52.126;-0.994;2023-01-30T14:42:28;101479.60;;;7.10;100.00
62948;BME280;51940;52.126;-0.994;2023-01-30T14:47:21;101472.86;;;7.10;100.00
62948;BME280;51940;52.126;-0.994;2023-01-30T14:49:47;101465.41;;;7.12;100.00